createdAt,value
2023-02-19T00:01:31.257Z,62.30
2023-02-19T00:03:59.947Z,62.30
2023-02-19T00:06:28.531Z,62.50
2023-02-19T00:08:56.699Z,62.50
2023-02-19T00:11:25.958Z,62.50
2023-02-19T00:13:57.343Z,62.50
2023-02-19T00:16:26.233Z,62.60
2023-02-19T00:18:54.419Z,62.60
2023-02-19T00:21:22.315Z,62.90
2023-02-19T00:23:51.235Z,62.90
2023-02-19T00:26:19.234Z,62.80
2023-02-19T00:28:49.957Z,62.80
2023-02-19T00:31:20.904Z,62.80
2023-02-19T00:33:49.540Z,62.90
2023-02-19T00:36:17.589Z,63.00
2023-02-19T00:38:45.547Z,63.00
2023-02-19T00:41:22.679Z,62.70
2023-02-19T00:43:51.395Z,62.40
2023-02-19T00:46:21.703Z,62.30
2023-02-19T00:48:49.741Z,62.20
2023-02-19T00:51:17.658Z,62.50
2023-02-19T00:53:45.688Z,62.50
2023-02-19T00:56:13.653Z,62.50
2023-02-19T00:58:41.704Z,62.50
2023-02-19T01:01:09.971Z,62.60
2023-02-19T01:03:39.683Z,62.70
2023-02-19T01:06:08.901Z,62.90
2023-02-19T01:08:36.898Z,62.90
2023-02-19T01:11:05.352Z,62.80
2023-02-19T01:13:33.383Z,62.80
2023-02-19T01:16:04.490Z,62.80
2023-02-19T01:18:32.635Z,62.90
2023-02-19T01:21:05.455Z,62.90
2023-02-19T01:23:33.382Z,63.10
2023-02-19T01:26:01.366Z,62.80
2023-02-19T01:28:29.554Z,62.50
2023-02-19T01:30:57.427Z,62.30
2023-02-19T01:33:25.338Z,62.40
2023-02-19T01:35:53.185Z,62.50
2023-02-19T01:38:22.401Z,62.70
2023-02-19T01:40:56.636Z,62.50
2023-02-19T01:43:24.538Z,62.50
2023-02-19T01:45:52.408Z,62.50
2023-02-19T01:48:21.202Z,62.60
2023-02-19T01:50:50.438Z,62.80
2023-02-19T01:53:19.789Z,62.90
2023-02-19T01:55:49.703Z,62.90
2023-02-19T01:58:17.595Z,62.90
2023-02-19T02:00:45.506Z,62.90
2023-02-19T02:03:13.618Z,62.80
2023-02-19T02:05:46.061Z,62.90
2023-02-19T02:08:32.310Z,63.10
2023-02-19T02:11:01.581Z,63.10
2023-02-19T02:13:29.584Z,62.50
2023-02-19T02:16:04.046Z,62.40
2023-02-19T02:18:37.501Z,62.20
2023-02-19T02:21:13.714Z,62.20
2023-02-19T02:23:47.637Z,62.50
2023-02-19T02:26:23.542Z,62.50
2023-02-19T02:29:05.253Z,62.50
2023-02-19T02:31:35.118Z,62.50
2023-02-19T02:34:05.435Z,62.60
2023-02-19T02:36:34.717Z,62.70
2023-02-19T02:39:03.374Z,63.00
2023-02-19T02:41:33.207Z,62.90
2023-02-19T02:44:01.666Z,62.90
2023-02-19T02:46:31.214Z,62.90
2023-02-19T02:49:03.087Z,62.80
2023-02-19T02:51:35.055Z,62.90
2023-02-19T02:54:25.608Z,63.10
2023-02-19T02:56:54.587Z,63.00
2023-02-19T02:59:23.618Z,62.70
2023-02-19T03:02:10.479Z,62.40
2023-02-19T03:05:03.278Z,62.30
2023-02-19T03:07:34.460Z,62.20
2023-02-19T03:10:02.443Z,62.50
2023-02-19T03:12:59.484Z,62.50
2023-02-19T03:15:47.773Z,62.40
2023-02-19T03:18:33.513Z,62.50
2023-02-19T03:21:02.904Z,62.60
2023-02-19T03:23:46.088Z,62.70
2023-02-19T03:26:14.319Z,62.80
2023-02-19T03:29:06.899Z,62.90
2023-02-19T03:31:36.157Z,62.70
2023-02-19T03:34:06.138Z,62.70
2023-02-19T03:36:38.043Z,62.80
2023-02-19T03:39:06.945Z,63.00
2023-02-19T03:41:37.791Z,63.00
2023-02-19T03:44:09.499Z,62.90
2023-02-19T03:46:41.347Z,62.90
2023-02-19T03:49:11.944Z,63.60
2023-02-19T03:51:44.971Z,63.00
2023-02-19T03:54:16.230Z,63.10
2023-02-19T03:56:46.481Z,63.00
2023-02-19T03:59:15.916Z,62.80
2023-02-19T04:01:45.719Z,62.40
2023-02-19T04:04:17.404Z,62.20
2023-02-19T04:06:47.692Z,62.10
2023-02-19T04:09:15.652Z,62.20
2023-02-19T04:11:47.918Z,62.30
2023-02-19T04:14:17.686Z,62.30
2023-02-19T04:16:46.812Z,62.30
2023-02-19T04:19:15.888Z,62.40
2023-02-19T04:21:43.787Z,62.60
2023-02-19T04:24:14.653Z,62.80
2023-02-19T04:26:42.608Z,62.90
2023-02-19T04:29:10.544Z,62.70
2023-02-19T04:31:38.497Z,62.70
2023-02-19T04:34:06.458Z,62.80
2023-02-19T04:36:34.676Z,62.90
2023-02-19T04:39:02.605Z,63.00
2023-02-19T04:41:31.885Z,63.30
2023-02-19T04:43:59.806Z,63.10
2023-02-19T04:46:27.759Z,62.70
2023-02-19T04:48:55.694Z,62.50
2023-02-19T04:51:23.629Z,62.30
2023-02-19T04:53:51.650Z,62.40
2023-02-19T04:56:19.672Z,62.70
2023-02-19T04:58:48.965Z,62.70
2023-02-19T05:01:16.874Z,62.50
2023-02-19T05:03:44.883Z,62.60
2023-02-19T05:06:13.720Z,62.70
2023-02-19T05:08:41.881Z,63.50
2023-02-19T05:11:11.126Z,62.90
2023-02-19T05:13:39.819Z,62.80
2023-02-19T05:16:11.150Z,62.70
2023-02-19T05:18:39.182Z,62.70
2023-02-19T05:21:07.170Z,62.80
2023-02-19T05:23:35.172Z,62.90
2023-02-19T05:26:06.261Z,63.00
2023-02-19T05:28:34.188Z,63.10
2023-02-19T05:31:05.553Z,62.90
2023-02-19T05:33:34.857Z,62.50
2023-02-19T05:36:06.150Z,62.30
2023-02-19T05:38:34.111Z,62.00
2023-02-19T05:41:09.463Z,62.10
2023-02-19T05:43:38.074Z,62.50
2023-02-19T05:46:06.271Z,62.40
2023-02-19T05:48:35.627Z,62.40
2023-02-19T05:51:03.976Z,62.40
2023-02-19T05:53:31.863Z,62.50
2023-02-19T05:55:59.786Z,62.70
2023-02-19T05:58:27.704Z,62.90
2023-02-19T06:00:55.757Z,62.70
2023-02-19T06:03:23.654Z,62.80
2023-02-19T06:05:52.930Z,62.70
2023-02-19T06:08:20.880Z,62.80
2023-02-19T06:10:48.801Z,62.90
2023-02-19T06:13:17.853Z,63.20
2023-02-19T06:15:45.944Z,63.00
2023-02-19T06:18:13.936Z,62.90
2023-02-19T06:20:41.847Z,63.00
2023-02-19T06:23:11.315Z,63.00
2023-02-19T06:25:39.259Z,62.90
2023-02-19T06:28:07.413Z,63.30
2023-02-19T06:30:35.448Z,63.20
2023-02-19T06:33:03.464Z,62.90
2023-02-19T06:35:31.399Z,62.60
2023-02-19T06:37:59.286Z,62.30
2023-02-19T06:40:28.599Z,62.30
2023-02-19T06:42:56.486Z,62.50
2023-02-19T06:45:24.400Z,62.50
2023-02-19T06:47:52.299Z,62.40
2023-02-19T06:50:20.203Z,62.50
2023-02-19T06:52:48.128Z,62.60
2023-02-19T06:55:16.214Z,62.70
2023-02-19T06:57:45.481Z,62.70
2023-02-19T07:00:14.091Z,62.80
2023-02-19T07:02:41.963Z,62.70
2023-02-19T07:05:09.909Z,62.70
2023-02-19T07:07:37.866Z,62.70
2023-02-19T07:10:06.524Z,62.80
2023-02-19T07:12:34.445Z,62.90
2023-02-19T07:15:03.748Z,63.00
2023-02-19T07:17:31.662Z,63.00
2023-02-19T07:19:59.647Z,62.60
2023-02-19T07:22:27.923Z,62.20
2023-02-19T07:24:55.833Z,62.20
2023-02-19T07:27:23.744Z,62.20
2023-02-19T07:29:51.612Z,62.60
2023-02-19T07:32:20.839Z,62.50
2023-02-19T07:34:48.748Z,62.40
2023-02-19T07:37:16.715Z,62.50
2023-02-19T07:39:44.589Z,62.50
2023-02-19T07:42:12.515Z,62.70
2023-02-19T07:44:40.444Z,62.80
2023-02-19T07:47:08.395Z,62.80
2023-02-19T07:49:37.844Z,62.70
2023-02-19T07:52:06.053Z,62.70
2023-02-19T07:54:34.025Z,62.70
2023-02-19T07:57:01.967Z,62.80
2023-02-19T07:59:29.885Z,63.00
2023-02-19T08:02:15.070Z,63.00
2023-02-19T08:04:45.687Z,62.70
2023-02-19T08:07:13.608Z,62.40
2023-02-19T08:09:41.481Z,62.20
2023-02-19T08:12:27.889Z,62.10
2023-02-19T08:14:55.794Z,62.40
2023-02-19T08:17:23.758Z,62.40
2023-02-19T08:19:53.026Z,62.40
2023-02-19T08:22:21.035Z,62.30
2023-02-19T08:24:48.911Z,62.50
2023-02-19T08:27:16.874Z,62.70
2023-02-19T08:29:44.767Z,62.70
2023-02-19T08:32:12.972Z,62.80
2023-02-19T08:34:40.955Z,62.70
2023-02-19T08:37:10.199Z,62.70
2023-02-19T08:39:38.107Z,62.70
2023-02-19T08:42:06.413Z,62.90
2023-02-19T08:44:34.420Z,62.90
2023-02-19T08:47:02.536Z,63.10
2023-02-19T08:49:30.606Z,62.90
2023-02-19T08:51:58.525Z,62.50
2023-02-19T08:54:27.818Z,62.30
2023-02-19T08:56:55.705Z,62.20
2023-02-19T08:59:23.706Z,62.40
2023-02-19T09:01:52.646Z,62.50
2023-02-19T09:04:20.729Z,63.20
2023-02-19T09:06:48.696Z,62.40
2023-02-19T09:09:16.611Z,62.50
2023-02-19T09:11:47.865Z,62.70
2023-02-19T09:14:16.977Z,62.70
2023-02-19T09:16:44.885Z,62.90
2023-02-19T09:19:12.797Z,62.90
2023-02-19T09:21:40.682Z,62.70
2023-02-19T09:24:09.768Z,62.80
2023-02-19T09:26:38.672Z,62.90
2023-02-19T09:29:08.054Z,63.00
2023-02-19T09:31:36.035Z,63.10
2023-02-19T09:34:03.954Z,63.10
2023-02-19T09:36:33.403Z,63.00
2023-02-19T09:39:01.857Z,62.60
2023-02-19T09:41:31.610Z,62.30
2023-02-19T09:43:59.725Z,62.20
2023-02-19T09:46:31.733Z,62.30
2023-02-19T09:49:03.370Z,62.50
2023-02-19T09:51:31.434Z,62.50
2023-02-19T09:53:59.375Z,62.40
2023-02-19T09:56:27.574Z,62.50
2023-02-19T09:58:56.674Z,62.60
2023-02-19T10:01:24.720Z,62.70
2023-02-19T10:03:53.998Z,62.90
2023-02-19T10:06:23.732Z,62.80
2023-02-19T10:08:52.520Z,62.80
2023-02-19T10:11:20.448Z,62.80
2023-02-19T10:13:49.052Z,62.90
2023-02-19T10:16:18.630Z,63.80
2023-02-19T10:18:46.598Z,63.20
2023-02-19T10:21:19.498Z,63.00
2023-02-19T10:23:47.431Z,62.60
2023-02-19T10:26:15.372Z,62.40
2023-02-19T10:28:43.306Z,62.40
2023-02-19T10:31:18.839Z,62.50
2023-02-19T10:33:52.263Z,62.80
2023-02-19T10:36:26.530Z,62.80
2023-02-19T10:38:54.416Z,62.60
2023-02-19T10:41:23.092Z,62.70
2023-02-19T10:43:53.613Z,62.70
2023-02-19T10:46:23.334Z,62.80
2023-02-19T10:48:52.916Z,63.00
2023-02-19T10:51:22.888Z,63.00
2023-02-19T10:53:53.463Z,62.90
2023-02-19T10:56:24.692Z,62.90
2023-02-19T10:58:52.728Z,63.00
2023-02-19T11:01:21.317Z,62.90
2023-02-19T11:03:49.812Z,63.10
2023-02-19T11:06:18.970Z,63.30
2023-02-19T11:08:48.937Z,63.00
2023-02-19T11:11:25.908Z,62.60
2023-02-19T11:13:54.655Z,62.30
2023-02-19T11:16:22.613Z,62.20
2023-02-19T11:18:57.047Z,62.30
2023-02-19T11:21:28.888Z,62.50
2023-02-19T11:23:56.786Z,62.50
2023-02-19T11:26:27.348Z,62.50
2023-02-19T11:28:57.177Z,62.50
2023-02-19T11:31:26.160Z,62.60
2023-02-19T11:33:56.685Z,62.70
2023-02-19T11:36:30.564Z,62.90
2023-02-19T11:38:59.401Z,62.70
2023-02-19T11:41:47.241Z,62.70
2023-02-19T11:44:25.608Z,62.80
2023-02-19T11:46:57.693Z,62.90
2023-02-19T11:49:30.107Z,63.00
2023-02-19T11:52:19.752Z,63.20
2023-02-19T11:54:50.970Z,63.00
2023-02-19T11:57:32.716Z,62.70
2023-02-19T12:00:04.561Z,62.50
2023-02-19T12:02:50.429Z,62.40
2023-02-19T12:05:21.747Z,62.50
2023-02-19T12:08:14.676Z,62.90
2023-02-19T12:10:49.547Z,62.70
2023-02-19T12:13:22.382Z,62.70
2023-02-19T12:16:05.899Z,62.70
2023-02-19T12:18:56.955Z,62.70
2023-02-19T12:21:30.796Z,62.90
2023-02-19T12:24:21.667Z,63.10
2023-02-19T12:26:58.864Z,62.70
2023-02-19T12:29:35.370Z,62.90
2023-02-19T12:32:15.448Z,62.90
2023-02-19T12:35:02.710Z,63.00
2023-02-19T12:37:35.633Z,63.10
2023-02-19T12:40:15.711Z,63.30
2023-02-19T12:42:51.428Z,63.00
2023-02-19T12:45:21.534Z,62.70
2023-02-19T12:47:58.482Z,62.30
2023-02-19T12:50:27.431Z,62.20
2023-02-19T12:52:57.958Z,62.40
2023-02-19T12:55:28.287Z,62.60
2023-02-19T12:57:56.192Z,62.60
2023-02-19T13:00:32.258Z,62.30
2023-02-19T13:03:01.556Z,62.50
2023-02-19T13:05:36.166Z,62.70
2023-02-19T13:08:05.720Z,62.90
2023-02-19T13:10:35.492Z,63.10
2023-02-19T13:13:05.898Z,62.90
2023-02-19T13:15:36.728Z,62.90
2023-02-19T13:18:04.871Z,63.00
2023-02-19T13:20:33.452Z,63.00
2023-02-19T13:23:20.482Z,63.80
2023-02-19T13:25:57.830Z,63.20
2023-02-19T13:28:33.882Z,63.20
2023-02-19T13:31:34.285Z,62.90
2023-02-19T13:34:06.120Z,62.50
2023-02-19T13:36:34.089Z,62.20
2023-02-19T13:39:01.958Z,62.40
2023-02-19T13:41:30.749Z,62.60
2023-02-19T13:44:01.531Z,62.60
2023-02-19T13:46:37.749Z,62.50
2023-02-19T13:49:25.528Z,62.80
2023-02-19T13:51:54.182Z,62.90
2023-02-19T13:54:24.074Z,62.80
2023-02-19T13:56:52.064Z,63.10
2023-02-19T13:59:25.426Z,63.00
2023-02-19T14:02:36.075Z,62.90
2023-02-19T14:05:07.762Z,63.00
2023-02-19T14:08:00.744Z,63.10
2023-02-19T14:11:02.162Z,63.20
2023-02-19T14:14:11.033Z,63.10
2023-02-19T14:17:05.496Z,63.10
2023-02-19T14:19:51.119Z,63.10
2023-02-19T14:22:51.214Z,63.20
2023-02-19T14:25:42.006Z,63.30
2023-02-19T14:28:29.815Z,63.40
2023-02-19T14:30:58.674Z,63.20
2023-02-19T14:33:27.587Z,62.80
2023-02-19T14:35:57.871Z,62.50
2023-02-19T14:38:28.684Z,62.40
2023-02-19T14:40:56.574Z,62.60
2023-02-19T14:43:25.967Z,62.80
2023-02-19T14:45:56.233Z,63.40
2023-02-19T14:48:25.976Z,62.50
2023-02-19T14:50:56.775Z,62.70
2023-02-19T14:53:24.676Z,62.90
2023-02-19T14:55:53.987Z,62.90
2023-02-19T14:58:23.443Z,63.10
2023-02-19T15:00:51.370Z,63.00
2023-02-19T15:03:32.977Z,63.00
2023-02-19T15:06:06.670Z,63.00
2023-02-19T15:08:37.519Z,63.90
2023-02-19T15:11:11.361Z,63.20
2023-02-19T15:13:45.435Z,63.40
2023-02-19T15:16:18.236Z,63.20
2023-02-19T15:18:46.368Z,62.80
2023-02-19T15:21:22.349Z,62.60
2023-02-19T15:23:50.304Z,62.60
2023-02-19T15:26:23.177Z,62.70
2023-02-19T15:28:59.896Z,62.90
2023-02-19T15:31:27.862Z,62.70
2023-02-19T15:33:55.876Z,62.90
2023-02-19T15:36:28.907Z,62.90
2023-02-19T15:38:58.124Z,62.90
2023-02-19T15:41:28.478Z,63.00
2023-02-19T15:44:00.288Z,63.20
2023-02-19T15:46:28.296Z,63.00
2023-02-19T15:49:00.107Z,63.10
2023-02-19T15:51:31.029Z,63.10
2023-02-19T15:54:03.153Z,63.20
2023-02-19T15:56:33.084Z,63.30
2023-02-19T15:59:01.795Z,63.50
2023-02-19T16:01:30.532Z,63.30
2023-02-19T16:03:58.946Z,63.00
2023-02-19T16:06:27.422Z,62.60
2023-02-19T16:09:02.813Z,62.50
2023-02-19T16:11:37.254Z,62.40
2023-02-19T16:14:19.163Z,62.80
2023-02-19T16:16:47.751Z,62.80
2023-02-19T16:19:21.568Z,62.50
2023-02-19T16:21:49.537Z,62.70
2023-02-19T16:24:20.107Z,62.90
2023-02-19T16:26:49.332Z,63.00
2023-02-19T16:29:19.523Z,63.10
2023-02-19T16:31:51.081Z,63.20
2023-02-19T16:34:19.579Z,63.00
2023-02-19T16:36:49.172Z,63.00
2023-02-19T16:39:18.739Z,63.00
2023-02-19T16:42:15.652Z,63.90
2023-02-19T16:44:44.807Z,63.30
2023-02-19T16:47:25.306Z,63.40
2023-02-19T16:49:53.243Z,63.10
2023-02-19T16:52:21.204Z,63.20
2023-02-19T16:54:49.292Z,63.20
2023-02-19T16:57:18.543Z,63.20
2023-02-19T16:59:46.449Z,63.40
2023-02-19T17:02:17.880Z,63.60
2023-02-19T17:04:46.275Z,63.20
2023-02-19T17:07:15.021Z,63.00
2023-02-19T17:09:43.008Z,62.60
2023-02-19T17:12:13.025Z,62.30
2023-02-19T17:14:42.289Z,62.50
2023-02-19T17:17:10.174Z,62.80
2023-02-19T17:19:39.174Z,62.50
2023-02-19T17:22:07.854Z,62.40
2023-02-19T17:24:35.872Z,62.60
2023-02-19T17:27:03.847Z,62.80
2023-02-19T17:29:33.956Z,62.90
2023-02-19T17:32:03.290Z,63.20
2023-02-19T17:34:31.262Z,62.90
2023-02-19T17:36:59.244Z,62.90
2023-02-19T17:39:27.721Z,63.00
2023-02-19T17:41:55.645Z,63.00
2023-02-19T17:44:23.730Z,63.00
2023-02-19T17:46:51.648Z,63.40
2023-02-19T17:49:20.977Z,63.00
2023-02-19T17:51:48.962Z,62.90
2023-02-19T17:54:16.969Z,63.10
2023-02-19T17:56:46.088Z,63.10
2023-02-19T17:59:14.133Z,63.20
2023-02-19T18:01:42.028Z,63.50
2023-02-19T18:04:09.935Z,63.40
2023-02-19T18:06:39.283Z,63.20
2023-02-19T18:09:07.238Z,62.80
2023-02-19T18:11:37.310Z,62.50
2023-02-19T18:14:05.341Z,62.30
2023-02-19T18:16:33.270Z,62.50
2023-02-19T18:19:02.280Z,62.80
2023-02-19T18:21:30.232Z,62.40
2023-02-19T18:23:59.517Z,62.50
2023-02-19T18:26:27.471Z,62.60
2023-02-19T18:28:55.440Z,62.80
2023-02-19T18:31:23.369Z,62.90
2023-02-19T18:33:51.372Z,63.20
2023-02-19T18:36:19.373Z,62.90
2023-02-19T18:38:47.294Z,63.10
2023-02-19T18:41:20.265Z,63.10
2023-02-19T18:43:48.728Z,63.00
2023-02-19T18:46:16.754Z,63.20
2023-02-19T18:48:44.717Z,63.40
2023-02-19T18:51:12.986Z,63.40
2023-02-19T18:53:42.790Z,63.00
2023-02-19T18:56:10.744Z,62.70
2023-02-19T18:58:40.284Z,62.60
2023-02-19T19:01:08.291Z,62.70
2023-02-19T19:03:36.192Z,63.00
2023-02-19T19:06:04.180Z,63.00
2023-02-19T19:08:32.114Z,62.50
2023-02-19T19:11:00.051Z,62.50
2023-02-19T19:13:27.991Z,62.70
2023-02-19T19:15:57.415Z,62.80
2023-02-19T19:18:26.014Z,63.10
2023-02-19T19:20:56.575Z,63.10
2023-02-19T19:23:24.575Z,62.90
2023-02-19T19:25:53.984Z,63.00
2023-02-19T19:28:21.964Z,63.10
2023-02-19T19:30:50.281Z,63.20
2023-02-19T19:33:20.365Z,63.20
2023-02-19T19:35:48.384Z,63.30
2023-02-19T19:38:16.327Z,63.20
2023-02-19T19:40:44.286Z,62.80
2023-02-19T19:43:12.491Z,62.50
2023-02-19T19:45:40.474Z,62.30
2023-02-19T19:48:08.583Z,62.20
2023-02-19T19:50:37.843Z,62.60
2023-02-19T19:53:05.775Z,62.60
2023-02-19T19:55:33.733Z,62.30
2023-02-19T19:58:01.638Z,62.50
2023-02-19T20:00:29.576Z,62.60
2023-02-19T20:02:57.552Z,62.90
2023-02-19T20:05:25.455Z,63.10
2023-02-19T20:07:55.689Z,63.10
2023-02-19T20:10:23.595Z,62.90
2023-02-19T20:12:51.527Z,63.00
2023-02-19T20:15:21.319Z,63.10
2023-02-19T20:17:49.280Z,63.10
2023-02-19T20:20:17.774Z,63.20
2023-02-19T20:22:45.719Z,63.30
2023-02-19T20:25:16.039Z,63.00
2023-02-19T20:27:43.994Z,63.20
2023-02-19T20:30:14.219Z,63.10
2023-02-19T20:32:42.121Z,63.20
2023-02-19T20:35:10.129Z,63.30
2023-02-19T20:37:38.986Z,63.60
2023-02-19T20:40:07.945Z,63.40
2023-02-19T20:42:37.232Z,63.00
2023-02-19T20:45:05.436Z,62.70
2023-02-19T20:47:33.359Z,62.40
2023-02-19T20:50:01.256Z,62.50
2023-02-19T20:52:29.171Z,62.80
2023-02-19T20:54:57.256Z,62.60
2023-02-19T20:57:25.242Z,62.50
2023-02-19T20:59:54.581Z,62.70
2023-02-19T21:02:24.472Z,63.00
2023-02-19T21:04:52.433Z,63.00
2023-02-19T21:07:20.358Z,63.20
2023-02-19T21:09:48.297Z,63.20
2023-02-19T21:12:16.264Z,63.00
2023-02-19T21:14:44.179Z,63.10
2023-02-19T21:17:13.491Z,63.20
2023-02-19T21:19:41.525Z,63.20
2023-02-19T21:22:09.448Z,63.30
2023-02-19T21:24:37.359Z,63.30
2023-02-19T21:27:05.366Z,63.10
2023-02-19T21:29:33.260Z,62.80
2023-02-19T21:32:01.237Z,62.60
2023-02-19T21:34:30.650Z,62.50
2023-02-19T21:36:59.750Z,62.60
2023-02-19T21:39:28.403Z,62.90
2023-02-19T21:41:58.475Z,62.80
2023-02-19T21:44:26.336Z,62.70
2023-02-19T21:46:54.532Z,62.90
2023-02-19T21:49:22.427Z,62.90
2023-02-19T21:51:52.291Z,63.10
2023-02-19T21:54:21.947Z,63.20
2023-02-19T21:56:49.922Z,63.30
2023-02-19T21:59:17.856Z,63.10
2023-02-19T22:01:45.952Z,63.20
2023-02-19T22:04:15.205Z,63.20
2023-02-19T22:06:43.285Z,63.20
2023-02-19T22:09:13.076Z,63.40
2023-02-19T22:11:41.060Z,63.40
2023-02-19T22:14:09.028Z,63.20
2023-02-19T22:16:37.065Z,62.80
2023-02-19T22:19:05.069Z,62.50
2023-02-19T22:21:33.297Z,62.50
2023-02-19T22:24:01.585Z,62.70
2023-02-19T22:26:32.103Z,62.90
2023-02-19T22:29:01.344Z,62.90
2023-02-19T22:31:29.348Z,62.80
2023-02-19T22:33:57.375Z,62.90
2023-02-19T22:36:26.458Z,62.90
2023-02-19T22:38:54.426Z,63.10
2023-02-19T22:41:22.354Z,63.20
2023-02-19T22:43:51.696Z,63.10
2023-02-19T22:46:20.780Z,63.20
2023-02-19T22:48:48.696Z,63.20
2023-02-19T22:51:17.572Z,63.10
2023-02-19T22:53:45.747Z,63.20
2023-02-19T22:56:14.325Z,63.40
2023-02-19T22:58:42.366Z,63.40
2023-02-19T23:01:11.852Z,63.10
2023-02-19T23:03:46.701Z,62.90
2023-02-19T23:06:14.933Z,62.60
2023-02-19T23:08:43.353Z,62.50
2023-02-19T23:11:11.888Z,62.70
2023-02-19T23:13:41.188Z,62.90
2023-02-19T23:16:09.560Z,62.90
2023-02-19T23:18:38.988Z,62.90
2023-02-19T23:21:06.950Z,62.90
2023-02-19T23:23:34.820Z,63.00
2023-02-19T23:26:03.157Z,63.00
2023-02-19T23:28:31.093Z,63.20
2023-02-19T23:30:59.080Z,63.10
2023-02-19T23:33:26.999Z,63.10
2023-02-19T23:35:56.264Z,63.10
2023-02-19T23:38:24.224Z,63.10
2023-02-19T23:40:52.140Z,63.20
2023-02-19T23:43:21.027Z,63.40
2023-02-19T23:45:49.050Z,63.30
2023-02-19T23:48:17.148Z,63.10
2023-02-19T23:50:45.042Z,62.70
2023-02-19T23:53:14.342Z,62.50
2023-02-19T23:55:42.328Z,62.40
2023-02-19T23:58:10.207Z,62.60
